createdAt,value
2022-12-26T00:01:46.924Z,3.83
2022-12-26T00:04:50.812Z,5.22
2022-12-26T00:07:01.036Z,5.25
2022-12-26T00:09:27.672Z,4.45
2022-12-26T00:11:54.267Z,4.82
2022-12-26T00:14:21.006Z,5.38
2022-12-26T00:16:47.721Z,5.28
2022-12-26T00:19:14.668Z,5.57
2022-12-26T00:21:41.319Z,5.63
2022-12-26T00:24:10.343Z,4.43
2022-12-26T00:26:37.201Z,5.70
2022-12-26T00:29:04.672Z,4.18
2022-12-26T00:31:33.302Z,4.30
2022-12-26T00:34:00.773Z,3.67
2022-12-26T00:36:33.388Z,5.20
2022-12-26T00:39:01.711Z,4.70
2022-12-26T00:41:28.890Z,4.95
2022-12-26T00:43:56.201Z,5.15
2022-12-26T00:46:23.256Z,4.03
2022-12-26T00:48:49.981Z,3.67
2022-12-26T00:51:16.937Z,3.13
2022-12-26T00:53:43.994Z,4.90
2022-12-26T00:56:10.914Z,3.55
2022-12-26T00:58:38.023Z,4.78
2022-12-26T01:01:11.793Z,3.78
2022-12-26T01:03:39.875Z,4.38
2022-12-26T01:06:07.142Z,5.47
2022-12-26T01:08:33.811Z,3.63
2022-12-26T01:11:09.000Z,4.25
2022-12-26T01:13:36.117Z,5.47
2022-12-26T01:16:03.778Z,5.22
2022-12-26T01:18:30.582Z,4.20
2022-12-26T01:21:07.089Z,3.92
2022-12-26T01:23:33.857Z,4.78
2022-12-26T01:26:19.309Z,5.35
2022-12-26T01:28:48.472Z,3.78
2022-12-26T01:31:15.709Z,5.13
2022-12-26T01:33:42.379Z,4.18
2022-12-26T01:36:09.108Z,3.72
2022-12-26T01:38:36.182Z,4.47
2022-12-26T01:41:19.547Z,5.57
2022-12-26T01:43:57.188Z,3.17
2022-12-26T01:46:38.860Z,4.13
2022-12-26T01:49:17.113Z,3.90
2022-12-26T01:51:49.825Z,5.38
2022-12-26T01:54:37.734Z,4.38
2022-12-26T01:57:07.309Z,2.72
2022-12-26T01:59:37.963Z,4.03
2022-12-26T02:02:05.232Z,3.28
2022-12-26T02:04:56.668Z,4.38
2022-12-26T02:09:50.509Z,3.42
2022-12-26T02:12:34.785Z,2.65
2022-12-26T02:15:10.673Z,4.03
2022-12-26T02:17:39.234Z,2.70
2022-12-26T02:20:19.546Z,3.40
2022-12-26T02:23:23.338Z,2.70
2022-12-26T02:26:13.281Z,2.53
2022-12-26T02:29:00.952Z,4.30
2022-12-26T02:31:36.741Z,3.30
2022-12-26T02:34:17.626Z,4.10
2022-12-26T02:37:13.484Z,3.53
2022-12-26T02:39:51.949Z,3.28
2022-12-26T02:42:29.348Z,3.38
2022-12-26T02:45:14.397Z,2.53
2022-12-26T02:51:10.828Z,3.20
2022-12-26T02:54:14.115Z,2.90
2022-12-26T02:57:10.408Z,2.90
2022-12-26T03:00:25.152Z,3.20
2022-12-26T03:03:32.411Z,2.92
2022-12-26T03:06:33.338Z,3.08
2022-12-26T03:09:39.773Z,2.97
2022-12-26T03:12:40.558Z,1.88
2022-12-26T03:15:12.290Z,2.88
2022-12-26T03:17:41.085Z,2.70
2022-12-26T03:20:29.176Z,2.60
2022-12-26T03:23:00.069Z,2.90
2022-12-26T03:26:08.879Z,2.42
2022-12-26T03:28:35.757Z,2.10
2022-12-26T03:31:06.928Z,2.67
2022-12-26T03:33:56.184Z,2.58
2022-12-26T03:36:28.472Z,3.05
2022-12-26T03:39:16.670Z,2.38
2022-12-26T03:42:18.061Z,2.40
2022-12-26T03:45:26.749Z,2.78
2022-12-26T03:48:41.188Z,3.65
2022-12-26T03:51:31.620Z,2.05
2022-12-26T03:54:27.612Z,3.08
2022-12-26T03:57:20.038Z,2.92
2022-12-26T04:00:16.884Z,2.72
2022-12-26T04:03:06.100Z,3.13
2022-12-26T04:05:55.957Z,2.65
2022-12-26T04:09:07.500Z,3.35
2022-12-26T04:11:55.522Z,3.40
2022-12-26T04:14:59.071Z,3.50
2022-12-26T04:18:02.559Z,3.33
2022-12-26T04:20:58.146Z,1.92
2022-12-26T04:24:04.367Z,2.83
2022-12-26T04:27:01.869Z,2.65
2022-12-26T04:29:48.379Z,2.60
2022-12-26T04:32:43.420Z,1.75
2022-12-26T04:35:38.072Z,2.80
2022-12-26T04:38:25.200Z,3.15
2022-12-26T04:41:15.883Z,3.45
2022-12-26T04:44:02.803Z,2.78
2022-12-26T04:46:32.129Z,3.60
2022-12-26T04:49:21.511Z,2.33
2022-12-26T04:51:48.608Z,3.42
2022-12-26T04:54:15.432Z,3.05
2022-12-26T04:56:42.086Z,3.05
2022-12-26T04:59:09.243Z,3.08
2022-12-26T05:01:54.815Z,3.50
2022-12-26T05:04:40.472Z,2.83
2022-12-26T05:07:35.066Z,3.30
2022-12-26T05:10:02.111Z,4.13
2022-12-26T05:12:28.834Z,2.92
2022-12-26T05:14:55.490Z,3.40
2022-12-26T05:17:40.297Z,2.03
2022-12-26T05:20:26.075Z,3.03
2022-12-26T05:23:11.977Z,3.35
2022-12-26T05:26:00.042Z,3.15
2022-12-26T05:28:42.089Z,3.00
2022-12-26T05:31:16.773Z,3.15
2022-12-26T05:34:02.401Z,2.80
2022-12-26T05:36:31.810Z,2.53
2022-12-26T05:38:58.477Z,2.50
2022-12-26T05:41:25.384Z,3.45
2022-12-26T05:43:52.204Z,3.25
2022-12-26T05:46:18.876Z,3.53
2022-12-26T05:48:45.533Z,2.90
2022-12-26T05:51:12.310Z,2.60
2022-12-26T05:53:38.962Z,2.28
2022-12-26T05:56:07.838Z,3.75
2022-12-26T05:58:34.624Z,2.45
2022-12-26T06:01:06.470Z,3.20
2022-12-26T06:03:33.886Z,2.35
2022-12-26T06:06:00.558Z,2.90
2022-12-26T06:08:27.380Z,3.40
2022-12-26T06:10:54.065Z,2.83
2022-12-26T06:13:20.749Z,3.13
2022-12-26T06:15:47.367Z,3.88
2022-12-26T06:18:13.965Z,2.72
2022-12-26T06:20:40.630Z,2.45
2022-12-26T06:23:07.535Z,3.13
2022-12-26T06:25:34.197Z,2.83
2022-12-26T06:28:00.836Z,3.58
2022-12-26T06:30:27.499Z,3.75
2022-12-26T06:32:55.313Z,3.53
2022-12-26T06:35:22.555Z,3.35
2022-12-26T06:37:49.203Z,2.85
2022-12-26T06:40:15.992Z,2.97
2022-12-26T06:42:42.613Z,2.00
2022-12-26T06:45:09.918Z,2.15
2022-12-26T06:47:36.528Z,2.47
2022-12-26T06:50:03.304Z,2.90
2022-12-26T06:52:29.975Z,2.67
2022-12-26T06:54:58.875Z,2.85
2022-12-26T06:57:25.493Z,2.17
2022-12-26T06:59:52.110Z,2.75
2022-12-26T07:02:18.872Z,3.05
2022-12-26T07:04:45.517Z,3.10
2022-12-26T07:07:12.168Z,2.58
2022-12-26T07:09:38.883Z,2.70
2022-12-26T07:12:05.799Z,3.20
2022-12-26T07:14:32.426Z,2.80
2022-12-26T07:16:59.037Z,2.33
2022-12-26T07:19:25.800Z,2.45
2022-12-26T07:21:52.405Z,1.52
2022-12-26T07:24:21.327Z,2.25
2022-12-26T07:26:49.163Z,3.25
2022-12-26T07:29:16.420Z,1.30
2022-12-26T07:31:43.164Z,2.30
2022-12-26T07:34:09.925Z,1.08
2022-12-26T07:36:36.600Z,2.45
2022-12-26T07:39:03.559Z,2.05
2022-12-26T07:41:49.421Z,1.30
2022-12-26T07:44:16.336Z,2.58
2022-12-26T07:46:43.341Z,3.00
2022-12-26T07:49:12.465Z,1.38
2022-12-26T07:51:39.259Z,2.28
2022-12-26T07:54:10.888Z,1.98
2022-12-26T07:56:38.071Z,1.63
2022-12-26T07:59:04.758Z,2.08
2022-12-26T08:01:31.551Z,2.08
2022-12-26T08:03:58.466Z,2.63
2022-12-26T08:06:25.178Z,2.42
2022-12-26T08:08:52.505Z,1.58
2022-12-26T08:11:22.592Z,1.58
2022-12-26T08:13:49.570Z,1.90
2022-12-26T08:16:16.550Z,2.40
2022-12-26T08:18:43.313Z,2.45
2022-12-26T08:21:11.258Z,2.47
2022-12-26T08:23:38.149Z,2.15
2022-12-26T08:26:09.999Z,1.98
2022-12-26T08:28:36.894Z,2.75
2022-12-26T08:31:07.621Z,1.95
2022-12-26T08:33:34.381Z,2.03
2022-12-26T08:36:05.653Z,2.10
2022-12-26T08:38:34.052Z,1.80
2022-12-26T08:41:01.805Z,2.30
2022-12-26T08:46:16.243Z,1.67
2022-12-26T08:48:44.301Z,2.08
2022-12-26T08:51:20.254Z,1.77
2022-12-26T08:53:49.643Z,1.92
2022-12-26T08:56:19.161Z,1.88
2022-12-26T08:58:46.551Z,1.98
2022-12-26T09:01:14.626Z,1.98
2022-12-26T09:03:42.464Z,1.90
2022-12-26T09:06:10.596Z,1.90
2022-12-26T09:08:38.126Z,1.92
2022-12-26T09:11:06.385Z,1.85
2022-12-26T09:13:33.946Z,2.13
2022-12-26T09:16:09.549Z,1.45
2022-12-26T09:18:36.683Z,2.13
2022-12-26T09:21:05.242Z,2.00
2022-12-26T09:23:32.452Z,2.63
2022-12-26T09:26:17.967Z,2.17
2022-12-26T09:28:47.044Z,1.70
2022-12-26T09:31:19.010Z,2.10
2022-12-26T09:33:47.381Z,1.70
2022-12-26T09:36:17.487Z,2.08
2022-12-26T09:38:44.845Z,1.63
2022-12-26T09:41:20.585Z,1.77
2022-12-26T09:43:56.333Z,1.35
2022-12-26T09:46:29.442Z,1.45
2022-12-26T09:49:14.056Z,1.63
2022-12-26T09:51:43.231Z,2.00
2022-12-26T09:54:18.869Z,1.92
2022-12-26T09:57:02.280Z,1.20
2022-12-26T09:59:32.338Z,2.35
2022-12-26T10:01:59.136Z,1.73
2022-12-26T10:04:30.200Z,1.67
2022-12-26T10:06:57.155Z,2.05
2022-12-26T10:09:45.967Z,1.33
2022-12-26T10:12:28.237Z,1.95
2022-12-26T10:15:06.883Z,1.55
2022-12-26T10:23:10.678Z,1.95
2022-12-26T10:25:50.047Z,1.88
2022-12-26T10:28:34.389Z,1.65
2022-12-26T10:31:06.183Z,1.95
2022-12-26T10:33:58.393Z,1.80
2022-12-26T10:36:48.632Z,1.90
2022-12-26T10:39:22.484Z,2.67
2022-12-26T10:41:55.824Z,2.22
2022-12-26T10:44:27.625Z,2.90
2022-12-26T10:47:20.665Z,1.75
2022-12-26T10:49:49.399Z,1.70
2022-12-26T10:52:18.008Z,1.10
2022-12-26T10:54:50.429Z,1.75
2022-12-26T10:57:41.399Z,1.60
2022-12-26T11:00:27.689Z,1.48
2022-12-26T11:03:12.593Z,1.73
2022-12-26T11:08:47.211Z,1.23
2022-12-26T11:11:25.662Z,1.77
2022-12-26T11:14:02.201Z,1.38
2022-12-26T11:16:31.863Z,1.67
2022-12-26T11:18:59.033Z,2.10
2022-12-26T11:21:28.167Z,1.75
2022-12-26T11:24:19.931Z,1.65
2022-12-26T11:26:47.016Z,1.70
2022-12-26T11:29:14.951Z,1.60
2022-12-26T11:31:49.958Z,1.50
2022-12-26T11:34:22.817Z,1.77
2022-12-26T11:36:50.977Z,1.48
2022-12-26T11:39:49.894Z,1.80
2022-12-26T11:42:23.770Z,1.55
2022-12-26T11:44:55.142Z,1.02
2022-12-26T11:47:26.461Z,1.58
2022-12-26T11:50:05.800Z,1.85
2022-12-26T11:52:51.739Z,1.40
2022-12-26T11:55:27.205Z,1.48
2022-12-26T11:58:09.237Z,2.13
2022-12-26T12:00:37.123Z,1.45
2022-12-26T12:03:16.449Z,1.77
2022-12-26T12:05:48.847Z,1.42
2022-12-26T12:08:32.398Z,1.25
2022-12-26T12:11:09.503Z,2.05
2022-12-26T12:14:03.380Z,2.15
2022-12-26T12:16:36.787Z,2.30
2022-12-26T12:19:12.513Z,1.63
2022-12-26T12:21:51.201Z,1.45
2022-12-26T12:27:05.032Z,0.88
2022-12-26T12:29:50.631Z,1.50
2022-12-26T12:32:34.386Z,1.60
2022-12-26T12:35:14.980Z,1.70
2022-12-26T12:37:52.930Z,1.67
2022-12-26T12:40:29.443Z,2.10
2022-12-26T12:43:09.013Z,1.63
2022-12-26T12:46:06.219Z,0.98
2022-12-26T12:48:41.553Z,1.45
2022-12-26T12:51:17.103Z,1.98
2022-12-26T12:54:21.117Z,1.38
2022-12-26T12:57:05.805Z,1.17
2022-12-26T12:59:39.203Z,1.05
2022-12-26T13:02:25.198Z,1.10
2022-12-26T13:04:59.608Z,1.80
2022-12-26T13:07:34.246Z,0.95
2022-12-26T13:10:05.832Z,1.75
2022-12-26T13:12:40.412Z,2.00
2022-12-26T13:15:14.669Z,1.60
2022-12-26T13:17:48.448Z,1.67
2022-12-26T13:20:27.255Z,1.95
2022-12-26T13:23:18.386Z,1.77
2022-12-26T13:25:49.279Z,2.10
2022-12-26T13:28:21.388Z,1.73
2022-12-26T13:30:56.276Z,1.83
2022-12-26T13:33:23.290Z,1.65
2022-12-26T13:35:49.873Z,1.13
2022-12-26T13:38:16.661Z,1.52
2022-12-26T13:41:22.131Z,1.85
2022-12-26T13:44:24.376Z,1.67
2022-12-26T13:46:56.445Z,1.90
2022-12-26T13:49:31.359Z,2.00
2022-12-26T13:52:19.429Z,1.73
2022-12-26T13:54:48.806Z,1.70
2022-12-26T13:57:36.756Z,1.83
2022-12-26T14:00:09.836Z,2.35
2022-12-26T14:05:47.199Z,1.95
2022-12-26T14:08:46.405Z,1.52
2022-12-26T14:11:41.300Z,1.98
2022-12-26T14:14:33.042Z,1.70
2022-12-26T14:17:05.436Z,1.63
2022-12-26T14:19:50.836Z,2.17
2022-12-26T14:22:29.213Z,2.30
2022-12-26T14:25:01.788Z,1.15
2022-12-26T14:27:47.228Z,1.10
2022-12-26T14:30:24.267Z,1.90
2022-12-26T14:33:06.504Z,1.30
2022-12-26T14:35:52.990Z,1.05
2022-12-26T14:38:32.290Z,1.90
2022-12-26T14:41:04.759Z,1.58
2022-12-26T14:43:39.674Z,2.25
2022-12-26T14:46:49.400Z,1.95
2022-12-26T14:49:22.158Z,1.50
2022-12-26T14:51:49.217Z,1.73
2022-12-26T14:54:25.591Z,1.13
2022-12-26T14:56:52.765Z,1.63
2022-12-26T14:59:28.013Z,1.33
2022-12-26T15:02:17.796Z,1.95
2022-12-26T15:05:03.287Z,2.35
2022-12-26T15:07:48.633Z,1.58
2022-12-26T15:10:36.196Z,1.85
2022-12-26T15:13:46.129Z,1.77
2022-12-26T15:16:36.809Z,1.38
2022-12-26T15:19:15.206Z,1.85
2022-12-26T15:22:12.853Z,1.63
2022-12-26T15:25:18.767Z,1.85
2022-12-26T15:27:59.363Z,1.45
2022-12-26T15:30:28.700Z,1.60
2022-12-26T15:33:07.770Z,2.13
2022-12-26T15:35:59.568Z,1.98
2022-12-26T15:38:52.843Z,1.90
2022-12-26T15:41:26.795Z,2.00
2022-12-26T15:44:19.639Z,1.98
2022-12-26T15:47:03.153Z,2.22
2022-12-26T15:49:57.280Z,2.15
2022-12-26T15:53:01.432Z,2.35
2022-12-26T15:56:01.818Z,2.72
2022-12-26T15:58:49.379Z,3.70
2022-12-26T16:01:36.600Z,2.83
2022-12-26T16:04:07.806Z,3.92
2022-12-26T16:06:52.682Z,2.30
2022-12-26T16:09:34.370Z,2.17
2022-12-26T16:12:01.735Z,2.30
2022-12-26T16:14:38.745Z,1.13
2022-12-26T16:17:14.447Z,2.40
2022-12-26T16:19:43.554Z,2.50
2022-12-26T16:22:48.899Z,2.67
2022-12-26T16:25:24.340Z,1.80
2022-12-26T16:27:58.175Z,2.13
2022-12-26T16:30:32.563Z,2.17
2022-12-26T16:33:00.352Z,1.65
2022-12-26T16:35:31.802Z,1.38
2022-12-26T16:38:00.462Z,1.10
2022-12-26T16:40:41.493Z,2.22
2022-12-26T16:43:14.273Z,2.25
2022-12-26T16:45:41.648Z,3.30
2022-12-26T16:48:11.765Z,3.63
2022-12-26T16:50:47.458Z,3.22
2022-12-26T16:53:19.234Z,3.20
2022-12-26T16:55:51.391Z,2.55
2022-12-26T16:58:30.512Z,3.67
2022-12-26T17:01:06.332Z,2.67
2022-12-26T17:03:38.381Z,2.50
2022-12-26T17:06:12.768Z,2.67
2022-12-26T17:08:48.820Z,1.95
2022-12-26T17:11:15.978Z,3.05
2022-12-26T17:13:51.682Z,1.90
2022-12-26T17:16:18.529Z,2.50
2022-12-26T17:18:50.560Z,2.58
2022-12-26T17:21:25.740Z,2.10
2022-12-26T17:24:11.832Z,2.05
2022-12-26T17:26:39.978Z,2.97
2022-12-26T17:29:06.771Z,3.25
2022-12-26T17:31:43.648Z,3.22
2022-12-26T17:34:23.987Z,1.83
2022-12-26T17:37:18.543Z,3.47
2022-12-26T17:39:37.953Z,1.73
2022-12-26T17:42:06.258Z,3.17
2022-12-26T17:44:36.591Z,3.15
2022-12-26T17:47:21.255Z,2.65
2022-12-26T17:49:49.155Z,2.35
2022-12-26T17:52:18.641Z,3.33
2022-12-26T17:54:45.548Z,2.47
2022-12-26T17:57:24.390Z,2.53
2022-12-26T17:59:52.665Z,1.73
2022-12-26T18:02:20.363Z,2.67
2022-12-26T18:04:48.070Z,2.88
2022-12-26T18:07:30.897Z,2.85
2022-12-26T18:09:59.809Z,3.42
2022-12-26T18:12:26.406Z,2.88
2022-12-26T18:14:59.293Z,3.50
2022-12-26T18:17:31.141Z,2.92
2022-12-26T18:19:57.778Z,2.70
2022-12-26T18:22:24.447Z,2.97
2022-12-26T18:24:51.032Z,2.60
2022-12-26T18:27:20.310Z,3.88
2022-12-26T18:29:47.058Z,3.05
2022-12-26T18:32:28.729Z,3.67
2022-12-26T18:34:56.329Z,3.42
2022-12-26T18:37:25.175Z,3.20
2022-12-26T18:39:52.717Z,3.30
2022-12-26T18:42:19.511Z,2.95
2022-12-26T18:44:46.741Z,2.65
2022-12-26T18:47:19.251Z,3.30
2022-12-26T18:49:46.611Z,3.20
2022-12-26T18:52:17.413Z,2.03
2022-12-26T18:54:44.711Z,2.60
2022-12-26T18:57:17.535Z,2.13
2022-12-26T18:59:44.247Z,2.40
2022-12-26T19:02:16.809Z,3.40
2022-12-26T19:04:43.449Z,2.60
2022-12-26T19:07:11.771Z,3.78
2022-12-26T19:09:41.909Z,2.83
2022-12-26T19:12:08.514Z,3.13
2022-12-26T19:14:35.082Z,3.50
2022-12-26T19:17:01.771Z,2.50
2022-12-26T19:19:29.748Z,2.63
2022-12-26T19:21:56.403Z,2.97
2022-12-26T19:24:23.449Z,3.03
2022-12-26T19:26:50.127Z,2.25
2022-12-26T19:29:16.765Z,2.78
2022-12-26T19:31:43.643Z,2.60
2022-12-26T19:34:10.349Z,3.33
2022-12-26T19:36:37.567Z,3.67
2022-12-26T19:39:04.872Z,3.40
2022-12-26T19:41:31.875Z,2.85
2022-12-26T19:43:59.456Z,3.50
2022-12-26T19:46:27.036Z,2.80
2022-12-26T19:48:54.194Z,3.15
2022-12-26T19:51:21.639Z,3.88
2022-12-26T19:53:48.963Z,2.50
2022-12-26T19:56:18.729Z,3.20
2022-12-26T19:58:47.333Z,3.30
2022-12-26T20:01:22.234Z,2.30
2022-12-26T20:03:49.410Z,3.05
2022-12-26T20:06:19.879Z,3.92
2022-12-26T20:08:48.410Z,2.50
2022-12-26T20:11:21.000Z,3.83
2022-12-26T20:13:48.529Z,2.70
2022-12-26T20:16:46.007Z,3.53
2022-12-26T20:19:04.773Z,3.30
2022-12-26T20:21:31.605Z,3.67
2022-12-26T20:23:59.354Z,2.83
2022-12-26T20:26:27.317Z,3.65
2022-12-26T20:28:57.606Z,3.13
2022-12-26T20:31:24.638Z,3.65
2022-12-26T20:33:52.273Z,4.30
2022-12-26T20:36:20.713Z,2.67
2022-12-26T20:38:51.064Z,2.75
2022-12-26T20:41:18.293Z,3.25
2022-12-26T20:43:45.029Z,2.50
2022-12-26T20:46:20.455Z,3.63
2022-12-26T20:48:49.633Z,3.35
2022-12-26T20:51:19.399Z,3.50
2022-12-26T20:53:46.466Z,3.33
2022-12-26T20:56:13.355Z,2.28
2022-12-26T20:58:40.050Z,3.28
2022-12-26T21:01:14.443Z,3.35
2022-12-26T21:03:41.235Z,2.20
2022-12-26T21:06:20.029Z,2.88
2022-12-26T21:11:18.729Z,3.42
2022-12-26T21:13:46.605Z,2.90
2022-12-26T21:16:15.851Z,3.42
2022-12-26T21:18:43.255Z,2.47
2022-12-26T21:21:15.960Z,2.70
2022-12-26T21:23:43.037Z,2.90
2022-12-26T21:26:10.357Z,3.03
2022-12-26T21:28:37.425Z,2.53
2022-12-26T21:31:07.452Z,2.35
2022-12-26T21:33:39.077Z,3.03
2022-12-26T21:36:13.279Z,3.60
2022-12-26T21:38:40.921Z,3.35
2022-12-26T21:41:12.080Z,2.50
2022-12-26T21:43:38.705Z,2.60
2022-12-26T21:46:08.853Z,2.28
2022-12-26T21:48:36.395Z,2.67
2022-12-26T21:51:07.325Z,2.25
2022-12-26T21:53:34.479Z,3.15
2022-12-26T21:56:07.704Z,3.47
2022-12-26T21:58:54.690Z,2.72
2022-12-26T22:01:22.764Z,3.40
2022-12-26T22:04:09.693Z,2.47
2022-12-26T22:06:37.370Z,2.85
2022-12-26T22:09:04.911Z,2.80
2022-12-26T22:11:50.470Z,2.35
2022-12-26T22:14:17.090Z,3.25
2022-12-26T22:16:44.033Z,3.88
2022-12-26T22:19:11.417Z,2.42
2022-12-26T22:21:38.160Z,3.75
2022-12-26T22:24:04.988Z,3.47
2022-12-26T22:26:31.625Z,3.40
2022-12-26T22:28:58.613Z,2.80
2022-12-26T22:31:28.341Z,3.40
2022-12-26T22:34:03.342Z,2.58
2022-12-26T22:36:31.470Z,2.88
2022-12-26T22:38:59.049Z,3.50
2022-12-26T22:41:26.545Z,3.47
2022-12-26T22:43:53.993Z,3.53
2022-12-26T22:46:20.805Z,2.97
2022-12-26T22:48:47.575Z,2.38
2022-12-26T22:51:19.686Z,3.47
2022-12-26T22:53:47.192Z,2.28
2022-12-26T22:56:14.309Z,3.30
2022-12-26T22:58:40.926Z,3.42
2022-12-26T23:01:19.334Z,3.45
2022-12-26T23:03:46.319Z,3.05
2022-12-26T23:06:27.690Z,3.05
2022-12-26T23:08:56.950Z,2.28
2022-12-26T23:11:32.226Z,3.03
2022-12-26T23:14:02.568Z,3.30
2022-12-26T23:16:52.388Z,3.45
2022-12-26T23:19:58.258Z,2.22
2022-12-26T23:22:25.084Z,3.17
2022-12-26T23:24:51.714Z,2.80
2022-12-26T23:27:37.311Z,1.65
2022-12-26T23:30:20.145Z,2.72
2022-12-26T23:32:51.090Z,2.30
2022-12-26T23:35:19.192Z,2.63
2022-12-26T23:37:45.852Z,2.50
2022-12-26T23:40:15.726Z,3.53
2022-12-26T23:42:42.563Z,2.70
2022-12-26T23:45:10.564Z,2.65
2022-12-26T23:47:38.976Z,2.53
2022-12-26T23:50:07.431Z,3.25
2022-12-26T23:52:34.641Z,2.83
2022-12-26T23:55:01.236Z,3.13
2022-12-26T23:57:28.271Z,2.08
2022-12-26T23:59:55.088Z,2.60
